Historyczne dane pomiarowe

Dodano dane terminowe – wersja testowa.

Dane z okresu 1951-2019

Wersja bazy: 1.34 [2019-03-16, lista zmian], aktualizacja planowana na 2019-04-15

Dane meteo z obszaru Polski uzyskane na podstawie danych udostępnionych przez Instytut Meteorologii i Gospodarki Wodnej – Państwowy Instytut Badawczy.

 

Wybierz Datę:    

       

TemperaturaWilgotnośćZachmurzenieWiatrCiśnienieWidzialnośćZjawiska
 Data    tng td wb rh cc ccl cl cm ch dir g1 g2 mslp ppp      
1999-06-16 00:00:00 15.3--- 14.3 14.794wxwxwxwx2wx--1023.0 998.4 0.0---wx
1999-06-16 01:00:00 15.5--- 14.2 14.792wxwxwxwx2wx--1022.4 997.8----wx
1999-06-16 02:00:00 15.4--- 14.1 14.692wxwxwxwx2wx--1022.5 997.9----wx
1999-06-16 03:00:00 15.1--- 14.1 14.594wxwxwxwx2wx--1022.2 997.6----wxw1
1999-06-16 04:00:00 15.2--- 14.5 14.896wxwxwxwx2wx--1022.5 997.9----wxw1
1999-06-16 05:00:00 15.1--- 14.3 14.695wxwxwxwx2wx--1022.6 998.0----wx
1999-06-16 06:00:00 15.6--- 14.9 15.296wxwxwxwx3wx--1022.6 998.0 0.0---wxw1
1999-06-16 07:00:00 16.4--- 15.4 15.894wxwxwxwx3wx--1022.6 998.1----wx
1999-06-16 08:00:00 16.7--- 15.6 16.093wxwxwxwx3wx--1022.6 998.1----wx
1999-06-16 09:00:00 16.6--- 15.6 16.094wxwxwxwx3wx--1022.8 998.3----wx
1999-06-16 10:00:00 16.6--- 15.6 16.094wxwxwxwx3wx--1023.1 998.6----wx
1999-06-16 11:00:00 17.2--- 15.8 16.391wxwxwxwx3wx--1022.9 998.4----wx
1999-06-16 12:00:00 18.2--- 16.0 16.887wxwxwxwx3wx--1022.5 998.1 0.0---wx
1999-06-16 13:00:00 18.9--- 16.1 17.184wxwxwxwx3wx--1022.0 997.7----wx
1999-06-16 14:00:00 18.6--- 16.1 17.085wxwxwxwx4wx--1021.5 997.2----wx
1999-06-16 15:00:00 18.6--- 16.1 17.085wxwxwxwx3wx--1021.3 997.0----wx
1999-06-16 16:00:00 18.2--- 16.0 16.887wxwxwxwx2wx--1021.2 996.9----wx
1999-06-16 17:00:00 18.2--- 15.8 16.786wxwxwxwx4wx--1021.1 996.8----wx
1999-06-16 18:00:00 17.8--- 15.6 16.487wxwxwxwx3wx--1021.3 996.9 0.0---wx
1999-06-16 19:00:00 17.5--- 15.9 16.590wxwxwx2wx--1021.5 997.1----wx
1999-06-16 20:00:00 17.3--- 15.7 16.390wxwxwxwx3wx--1021.6 997.2----wx
1999-06-16 21:00:00 16.9--- 15.8 16.293wxwxwxwx1wx--1021.3 996.9----wx
1999-06-16 22:00:00 16.6--- 15.5 15.993wxwxwx1wx--1021.0 996.5----wx
1999-06-16 23:00:00 16.5--- 15.5 15.994wxwxwx1wx--1020.9 996.4----wx

 

Źródłem pochodzenia danych jest Instytut Meteorologii i Gospodarki Wodnej – Państwowy Instytut Badawczy. Dane Instytutu Meteorologii i Gospodarki Wodnej – Państwowego Instytutu Badawczego zostały przetworzone.

Dane źródłowe można odnaleźć na stronie https://dane.imgw.pl